createdAt,value
2023-10-09T00:00:51.433Z,15.59
2023-10-09T00:05:48.080Z,15.41
2023-10-09T00:10:53.256Z,15.50
2023-10-09T00:15:53.672Z,15.47
2023-10-09T00:20:55.227Z,15.42
2023-10-09T00:26:08.997Z,15.55
2023-10-09T00:31:08.358Z,15.58
2023-10-09T00:36:09.945Z,15.21
2023-10-09T00:41:20.648Z,15.20
2023-10-09T00:46:24.417Z,15.36
2023-10-09T00:51:22.618Z,15.11
2023-10-09T00:56:21.838Z,15.15
2023-10-09T01:01:18.706Z,15.52
2023-10-09T01:06:21.642Z,15.45
2023-10-09T01:11:19.176Z,15.65
2023-10-09T01:16:17.258Z,15.79
2023-10-09T01:21:15.548Z,15.84
2023-10-09T01:26:12.702Z,15.43
2023-10-09T01:31:09.330Z,15.72
2023-10-09T01:36:07.312Z,15.83
2023-10-09T01:41:08.697Z,15.93
2023-10-09T01:46:06.124Z,15.62
2023-10-09T01:51:05.992Z,15.41
2023-10-09T01:56:09.605Z,15.23
2023-10-09T02:01:07.012Z,15.12
2023-10-09T02:06:05.425Z,14.94
2023-10-09T02:11:03.221Z,14.73
2023-10-09T02:16:13.408Z,14.60
2023-10-09T02:21:13.628Z,14.93
2023-10-09T02:26:17.536Z,14.90
2023-10-09T02:31:14.202Z,14.98
2023-10-09T02:36:13.571Z,15.08
2023-10-09T02:41:21.248Z,15.01
2023-10-09T02:46:21.166Z,14.77
2023-10-09T02:51:36.772Z,15.08
2023-10-09T02:56:37.407Z,14.77
2023-10-09T03:01:35.336Z,14.82
2023-10-09T03:06:33.501Z,15.03
2023-10-09T03:11:32.690Z,14.93
2023-10-09T03:16:29.271Z,14.50
2023-10-09T03:21:25.890Z,14.52
2023-10-09T03:26:25.903Z,14.68
2023-10-09T03:31:23.206Z,14.73
2023-10-09T03:36:19.766Z,14.95
2023-10-09T03:41:18.459Z,15.08
2023-10-09T03:46:21.465Z,15.07
2023-10-09T03:51:22.199Z,15.18
2023-10-09T03:56:19.111Z,14.92
2023-10-09T04:01:23.366Z,14.91
2023-10-09T04:06:19.939Z,14.98
2023-10-09T04:11:23.274Z,15.01
2023-10-09T04:16:34.641Z,14.77
2023-10-09T04:21:37.651Z,14.88
2023-10-09T04:26:35.486Z,14.80
2023-10-09T04:31:32.954Z,14.76
2023-10-09T04:36:36.964Z,14.69
2023-10-09T04:41:51.872Z,14.46
2023-10-09T04:47:04.525Z,14.40
2023-10-09T04:52:09.293Z,14.38
2023-10-09T04:57:18.277Z,14.44
2023-10-09T05:02:19.978Z,14.61
2023-10-09T05:07:46.255Z,14.56
2023-10-09T05:12:47.272Z,14.62
2023-10-09T05:17:55.764Z,14.72
2023-10-09T05:22:58.705Z,14.82
2023-10-09T05:28:15.252Z,15.25
2023-10-09T05:33:27.108Z,14.78
2023-10-09T05:38:24.459Z,14.83
2023-10-09T05:43:36.119Z,14.78
2023-10-09T05:48:51.769Z,14.95
2023-10-09T05:54:12.263Z,15.16
2023-10-09T05:59:26.868Z,14.65
2023-10-09T06:04:34.303Z,14.61
2023-10-09T06:09:50.073Z,14.86
2023-10-09T06:14:50.289Z,14.55
2023-10-09T06:19:49.401Z,14.44
2023-10-09T06:24:55.455Z,14.93
2023-10-09T06:29:59.100Z,14.97
2023-10-09T06:35:13.753Z,15.05
2023-10-09T06:40:28.664Z,14.91
2023-10-09T06:45:44.318Z,14.73
2023-10-09T06:50:58.525Z,14.99
2023-10-09T06:56:05.880Z,14.93
2023-10-09T07:01:22.744Z,15.20
2023-10-09T07:06:52.241Z,15.32
2023-10-09T07:12:03.778Z,15.53
2023-10-09T07:17:01.651Z,15.55
2023-10-09T07:22:03.404Z,15.62
2023-10-09T07:27:06.705Z,15.84
2023-10-09T07:32:12.936Z,15.72
2023-10-09T07:37:10.656Z,16.00
2023-10-09T07:42:19.412Z,16.07
2023-10-09T07:47:20.229Z,16.11
2023-10-09T07:52:22.151Z,16.19
2023-10-09T07:57:19.444Z,16.03
2023-10-09T08:02:34.069Z,16.19
2023-10-09T08:08:02.511Z,16.03
2023-10-09T08:13:20.339Z,16.16
2023-10-09T08:18:28.512Z,16.55
2023-10-09T08:23:29.802Z,16.46
2023-10-09T08:28:40.359Z,16.68
2023-10-09T08:38:45.537Z,15.95
2023-10-09T08:43:52.078Z,16.25
2023-10-09T08:48:49.387Z,16.61
2023-10-09T08:53:47.204Z,16.59
2023-10-09T08:58:43.778Z,16.86
2023-10-09T09:03:41.419Z,16.91
2023-10-09T09:08:38.513Z,17.14
2023-10-09T09:13:35.849Z,17.20
2023-10-09T09:18:38.565Z,17.27
2023-10-09T09:23:35.510Z,17.18
2023-10-09T09:28:42.131Z,16.95
2023-10-09T09:33:40.350Z,17.08
2023-10-09T09:38:42.758Z,17.35
2023-10-09T09:43:41.974Z,17.38
2023-10-09T09:48:44.603Z,17.25
2023-10-09T09:53:41.258Z,17.28
2023-10-09T09:58:43.140Z,16.95
2023-10-09T10:03:44.319Z,17.00
2023-10-09T10:08:42.444Z,17.43
2023-10-09T10:14:04.469Z,17.74
2023-10-09T10:19:08.160Z,17.89
2023-10-09T10:24:06.812Z,18.08
2023-10-09T10:29:37.879Z,17.83
2023-10-09T10:34:55.287Z,18.04
2023-10-09T10:39:59.815Z,18.35
2023-10-09T10:44:57.340Z,18.19
2023-10-09T10:49:58.610Z,18.57
2023-10-09T10:55:18.118Z,18.75
2023-10-09T11:00:34.847Z,18.85
2023-10-09T11:05:40.311Z,18.78
2023-10-09T11:10:50.280Z,19.15
2023-10-09T11:15:48.113Z,19.35
2023-10-09T11:20:56.944Z,19.60
2023-10-09T11:26:08.345Z,19.44
2023-10-09T11:31:08.231Z,19.59
2023-10-09T11:36:07.666Z,19.72
2023-10-09T11:41:19.356Z,19.85
2023-10-09T11:46:37.138Z,19.74
2023-10-09T11:51:38.562Z,19.73
2023-10-09T11:56:36.411Z,19.89
2023-10-09T12:01:36.001Z,20.11
2023-10-09T12:06:32.789Z,20.06
2023-10-09T12:11:30.550Z,20.05
2023-10-09T12:16:33.486Z,20.04
2023-10-09T12:21:30.217Z,20.12
2023-10-09T12:26:26.771Z,19.96
2023-10-09T12:31:24.712Z,20.10
2023-10-09T12:36:22.054Z,20.15
2023-10-09T12:41:25.856Z,20.33
2023-10-09T12:46:23.558Z,20.48
2023-10-09T12:51:20.277Z,20.29
2023-10-09T12:56:18.858Z,20.33
2023-10-09T13:01:15.501Z,20.33
2023-10-09T13:06:15.983Z,20.27
2023-10-09T13:11:13.027Z,20.45
2023-10-09T13:16:21.452Z,20.57
2023-10-09T13:21:18.841Z,20.55
2023-10-09T13:26:32.238Z,20.58
2023-10-09T13:31:34.425Z,20.76
2023-10-09T13:36:33.664Z,20.51
2023-10-09T13:41:30.419Z,20.61
2023-10-09T13:46:27.277Z,20.44
2023-10-09T13:51:25.053Z,20.45
2023-10-09T13:56:21.942Z,20.43
2023-10-09T14:01:27.406Z,20.40
2023-10-09T14:06:31.496Z,20.38
2023-10-09T14:11:28.458Z,20.21
2023-10-09T14:16:25.179Z,20.15
2023-10-09T14:21:22.251Z,20.03
2023-10-09T14:26:19.784Z,20.33
2023-10-09T14:31:20.999Z,20.45
2023-10-09T14:36:24.504Z,20.42
2023-10-09T14:41:23.846Z,20.55
2023-10-09T14:46:25.578Z,20.62
2023-10-09T14:51:28.519Z,20.61
2023-10-09T14:56:29.656Z,20.67
2023-10-09T15:01:29.112Z,20.64
2023-10-09T15:06:28.281Z,20.46
2023-10-09T15:11:25.737Z,20.33
2023-10-09T15:16:26.888Z,20.25
2023-10-09T15:21:26.843Z,19.97
2023-10-09T15:26:25.331Z,20.01
2023-10-09T15:31:22.538Z,19.91
2023-10-09T15:36:21.014Z,19.93
2023-10-09T15:41:18.623Z,20.14
2023-10-09T15:46:15.355Z,20.36
2023-10-09T15:51:15.165Z,20.12
2023-10-09T15:56:12.960Z,19.89
2023-10-09T16:01:11.448Z,20.06
2023-10-09T16:06:11.657Z,20.23
2023-10-09T16:11:08.729Z,20.44
2023-10-09T16:16:08.550Z,20.40
2023-10-09T16:21:06.667Z,20.26
2023-10-09T16:26:07.472Z,20.39
2023-10-09T16:31:06.883Z,20.47
2023-10-09T16:36:04.414Z,20.62
2023-10-09T16:41:08.046Z,20.76
2023-10-09T16:46:08.883Z,20.78
2023-10-09T16:51:09.029Z,20.59
2023-10-09T16:56:10.310Z,20.66
2023-10-09T17:01:10.917Z,20.52
2023-10-09T17:06:10.424Z,20.68
2023-10-09T17:11:10.553Z,20.60
2023-10-09T17:16:17.453Z,20.43
2023-10-09T17:21:15.078Z,20.11
2023-10-09T17:26:12.130Z,20.23
2023-10-09T17:31:08.875Z,19.94
2023-10-09T17:36:06.435Z,19.92
2023-10-09T17:41:06.516Z,20.06
2023-10-09T17:46:04.883Z,20.21
2023-10-09T17:51:01.478Z,20.28
2023-10-09T17:55:58.316Z,20.17
2023-10-09T18:00:58.339Z,19.83
2023-10-09T18:05:55.178Z,20.12
2023-10-09T18:10:56.135Z,20.27
2023-10-09T18:16:08.065Z,20.42
2023-10-09T18:21:05.984Z,20.10
2023-10-09T18:26:02.762Z,19.81
2023-10-09T18:30:59.542Z,19.76
2023-10-09T18:36:00.590Z,20.02
2023-10-09T18:40:57.299Z,20.05
2023-10-09T18:45:54.785Z,20.09
2023-10-09T18:50:52.412Z,20.11
2023-10-09T18:55:49.791Z,20.09
2023-10-09T19:00:49.464Z,19.70
2023-10-09T19:05:57.733Z,19.64
2023-10-09T19:11:09.856Z,19.75
2023-10-09T19:16:06.707Z,19.91
2023-10-09T19:21:05.369Z,20.17
2023-10-09T19:26:03.722Z,20.10
2023-10-09T19:31:06.785Z,20.21
2023-10-09T19:36:05.578Z,20.11
2023-10-09T19:41:02.814Z,20.22
2023-10-09T19:46:02.029Z,20.25
2023-10-09T19:50:59.184Z,20.27
2023-10-09T19:55:56.510Z,20.26
2023-10-09T20:00:53.812Z,20.29
2023-10-09T20:05:50.923Z,20.27
2023-10-09T20:10:48.051Z,20.06
2023-10-09T20:15:47.326Z,20.01
2023-10-09T20:20:45.304Z,20.14
2023-10-09T20:25:41.899Z,20.08
2023-10-09T20:30:38.524Z,19.86
2023-10-09T20:35:40.021Z,19.93
2023-10-09T20:40:43.223Z,19.58
2023-10-09T20:45:40.094Z,19.00
2023-10-09T20:50:39.997Z,19.03
2023-10-09T20:55:37.426Z,19.29
2023-10-09T21:00:37.623Z,19.49
2023-10-09T21:05:35.131Z,19.24
2023-10-09T21:10:31.657Z,19.35
2023-10-09T21:15:31.192Z,19.38
2023-10-09T21:20:30.552Z,19.70
2023-10-09T21:25:28.483Z,19.54
2023-10-09T21:30:25.860Z,19.60
2023-10-09T21:35:27.801Z,19.56
2023-10-09T21:40:28.884Z,19.63
2023-10-09T21:45:26.362Z,19.65
2023-10-09T21:50:23.354Z,19.57
2023-10-09T21:55:19.913Z,19.66
2023-10-09T22:00:18.978Z,19.65
2023-10-09T22:05:19.752Z,19.70
2023-10-09T22:10:16.363Z,19.70
2023-10-09T22:15:14.644Z,19.71
2023-10-09T22:20:18.797Z,19.72
2023-10-09T22:25:16.149Z,19.81
2023-10-09T22:30:12.979Z,19.70
2023-10-09T22:35:14.357Z,19.76
2023-10-09T22:40:23.440Z,19.68
2023-10-09T22:45:30.896Z,19.68
2023-10-09T22:50:35.074Z,19.68
2023-10-09T22:55:32.262Z,19.81
2023-10-09T23:00:39.580Z,19.75
2023-10-09T23:05:44.250Z,19.69
2023-10-09T23:10:49.938Z,19.81
2023-10-09T23:16:07.070Z,19.84
2023-10-09T23:21:23.189Z,19.30
2023-10-09T23:26:27.046Z,19.56
2023-10-09T23:31:26.722Z,19.63
2023-10-09T23:36:29.817Z,19.45
2023-10-09T23:41:27.490Z,19.27
2023-10-09T23:46:24.485Z,19.30
2023-10-09T23:51:21.025Z,19.23
2023-10-09T23:56:39.363Z,19.05
